createdAt,value
2018-03-23T00:01:12.944Z,87.00
2018-03-23T00:04:17.043Z,87.47
2018-03-23T00:07:20.395Z,87.61
2018-03-23T00:10:23.745Z,87.52
2018-03-23T00:13:28.034Z,87.43
2018-03-23T00:16:31.474Z,87.48
2018-03-23T00:19:35.716Z,87.36
2018-03-23T00:22:39.060Z,87.59
2018-03-23T00:25:43.190Z,88.06
2018-03-23T00:28:47.621Z,88.37
2018-03-23T00:31:51.019Z,88.12
2018-03-23T00:34:54.353Z,88.50
2018-03-23T00:37:57.729Z,88.59
2018-03-23T00:41:01.854Z,88.88
2018-03-23T00:44:05.232Z,89.08
2018-03-23T00:47:08.592Z,89.43
2018-03-23T00:50:11.970Z,89.75
2018-03-23T00:53:15.338Z,89.95
2018-03-23T00:56:19.456Z,90.05
2018-03-23T00:59:23.578Z,90.25
2018-03-23T01:02:27.847Z,90.25
2018-03-23T01:05:31.649Z,90.42
2018-03-23T01:08:34.989Z,89.85
2018-03-23T01:11:39.102Z,89.61
2018-03-23T01:14:42.448Z,89.20
2018-03-23T01:17:45.940Z,88.62
2018-03-23T01:20:49.286Z,88.65
2018-03-23T01:23:52.633Z,88.93
2018-03-23T01:26:55.985Z,88.91
2018-03-23T01:30:00.090Z,88.94
2018-03-23T01:33:03.433Z,89.07
2018-03-23T01:36:07.579Z,89.06
2018-03-23T01:39:10.925Z,88.49
2018-03-23T01:42:14.430Z,88.43
2018-03-23T01:45:17.793Z,88.64
2018-03-23T01:48:21.136Z,88.78
2018-03-23T01:51:25.244Z,89.14
2018-03-23T01:54:28.606Z,88.91
2018-03-23T01:57:31.977Z,88.92
2018-03-23T02:00:35.313Z,88.76
2018-03-23T02:03:38.700Z,88.55
2018-03-23T02:06:42.268Z,88.62
2018-03-23T02:09:45.668Z,88.58
2018-03-23T02:12:49.948Z,88.68
2018-03-23T02:15:53.376Z,88.84
2018-03-23T02:18:57.492Z,88.86
2018-03-23T02:22:01.610Z,88.79
2018-03-23T02:25:05.720Z,88.71
2018-03-23T02:28:09.958Z,88.62
2018-03-23T02:31:13.289Z,88.54
2018-03-23T02:34:16.638Z,88.44
2018-03-23T02:37:20.749Z,88.54
2018-03-23T02:40:24.108Z,88.55
2018-03-23T02:43:27.454Z,88.62
2018-03-23T02:46:31.561Z,88.87
2018-03-23T02:49:35.662Z,89.04
2018-03-23T02:52:39.823Z,89.10
2018-03-23T02:55:43.190Z,89.00
2018-03-23T02:58:47.303Z,88.99
2018-03-23T03:01:50.666Z,89.01
2018-03-23T03:04:54.288Z,88.99
2018-03-23T03:07:57.657Z,89.04
2018-03-23T03:11:01.002Z,88.98
2018-03-23T03:14:05.858Z,88.98
2018-03-23T03:17:10.029Z,88.94
2018-03-23T03:20:13.386Z,88.85
2018-03-23T03:23:16.726Z,88.86
2018-03-23T03:26:20.168Z,88.76
2018-03-23T03:29:24.286Z,88.94
2018-03-23T03:32:28.397Z,89.05
2018-03-23T03:35:33.248Z,89.28
2018-03-23T03:38:37.360Z,89.28
2018-03-23T03:41:41.468Z,89.36
2018-03-23T03:44:45.587Z,89.36
2018-03-23T03:47:49.824Z,89.27
2018-03-23T03:50:53.209Z,89.19
2018-03-23T03:53:57.320Z,89.20
2018-03-23T03:57:01.434Z,89.15
2018-03-23T04:00:05.542Z,89.21
2018-03-23T04:03:08.899Z,89.31
2018-03-23T04:06:12.277Z,89.36
2018-03-23T04:09:15.636Z,89.44
2018-03-23T04:12:19.032Z,89.27
2018-03-23T04:15:22.373Z,89.31
2018-03-23T04:18:25.782Z,89.35
2018-03-23T04:21:29.138Z,89.64
2018-03-23T04:24:33.280Z,89.54
2018-03-23T04:27:36.765Z,89.56
2018-03-23T04:30:40.908Z,89.33
2018-03-23T04:33:44.448Z,89.12
2018-03-23T04:36:47.828Z,89.25
2018-03-23T04:39:51.177Z,89.30
2018-03-23T04:42:55.328Z,89.27
2018-03-23T04:45:58.683Z,89.14
2018-03-23T04:49:02.134Z,89.06
2018-03-23T04:52:05.486Z,89.09
2018-03-23T04:55:08.909Z,89.11
2018-03-23T04:58:13.018Z,89.16
2018-03-23T05:01:17.160Z,89.30
2018-03-23T05:04:20.534Z,89.48
2018-03-23T05:07:24.649Z,89.50
2018-03-23T05:10:28.773Z,89.53
2018-03-23T05:13:32.895Z,89.48
2018-03-23T05:16:36.236Z,89.75
2018-03-23T05:19:39.644Z,89.80
2018-03-23T05:22:42.953Z,89.49
2018-03-23T05:25:47.830Z,89.44
2018-03-23T05:28:51.185Z,89.46
2018-03-23T05:31:54.536Z,89.21
2018-03-23T05:34:57.932Z,89.14
2018-03-23T05:38:01.254Z,89.29
2018-03-23T05:41:04.600Z,89.60
2018-03-23T05:44:08.732Z,90.10
2018-03-23T05:47:12.201Z,90.56
2018-03-23T05:50:15.514Z,90.78
2018-03-23T05:53:18.918Z,90.65
2018-03-23T05:56:23.065Z,90.92
2018-03-23T05:59:26.475Z,90.95
2018-03-23T06:02:29.861Z,91.00
2018-03-23T06:05:33.222Z,91.07
2018-03-23T06:08:36.650Z,91.21
2018-03-23T06:11:39.996Z,91.40
2018-03-23T06:14:43.344Z,91.08
2018-03-23T06:17:47.456Z,90.84
2018-03-23T06:20:51.590Z,90.74
2018-03-23T06:23:54.946Z,90.47
2018-03-23T06:26:58.300Z,90.16
2018-03-23T06:30:01.684Z,90.20
2018-03-23T06:33:05.053Z,89.86
2018-03-23T06:36:09.165Z,89.64
2018-03-23T06:39:12.500Z,88.93
2018-03-23T06:42:15.850Z,88.64
2018-03-23T06:45:20.113Z,88.46
2018-03-23T06:48:23.566Z,88.45
2018-03-23T06:51:27.701Z,88.30
2018-03-23T06:54:31.111Z,88.65
2018-03-23T06:57:34.439Z,88.42
2018-03-23T07:00:37.811Z,88.01
2018-03-23T07:03:42.046Z,87.96
2018-03-23T07:06:45.393Z,87.59
2018-03-23T07:09:48.757Z,86.68
2018-03-23T07:12:52.170Z,86.10
2018-03-23T07:15:55.531Z,85.87
2018-03-23T07:18:59.763Z,85.03
2018-03-23T07:22:03.125Z,84.66
2018-03-23T07:25:06.502Z,84.36
2018-03-23T07:28:10.069Z,83.42
2018-03-23T07:31:13.419Z,82.73
2018-03-23T07:34:17.691Z,82.59
2018-03-23T07:37:21.046Z,82.51
2018-03-23T07:40:24.427Z,81.37
2018-03-23T07:43:28.095Z,80.40
2018-03-23T07:46:31.609Z,78.96
2018-03-23T07:49:34.972Z,79.24
2018-03-23T07:52:39.121Z,78.84
2018-03-23T07:55:42.475Z,78.19
2018-03-23T07:58:45.885Z,78.43
2018-03-23T08:01:50.229Z,77.60
2018-03-23T08:04:53.822Z,77.74
2018-03-23T08:07:57.171Z,77.93
2018-03-23T08:11:00.630Z,79.04
2018-03-23T08:14:03.997Z,80.81
2018-03-23T08:17:07.472Z,80.94
2018-03-23T08:20:10.834Z,81.05
2018-03-23T08:23:14.185Z,81.13
2018-03-23T08:26:19.057Z,81.55
2018-03-23T08:29:22.435Z,81.98
2018-03-23T08:32:26.977Z,81.58
2018-03-23T08:35:30.469Z,81.58
2018-03-23T08:38:34.670Z,81.52
2018-03-23T08:41:38.101Z,80.65
2018-03-23T08:44:41.535Z,80.17
2018-03-23T08:47:44.844Z,80.57
2018-03-23T08:50:48.212Z,79.75
2018-03-23T08:53:51.814Z,80.58
2018-03-23T08:56:55.184Z,78.87
2018-03-23T08:59:59.426Z,79.36
2018-03-23T09:03:02.940Z,79.29
2018-03-23T09:06:06.326Z,79.19
2018-03-23T09:09:09.666Z,80.09
2018-03-23T09:12:13.023Z,79.71
2018-03-23T09:15:16.449Z,80.37
2018-03-23T09:18:19.846Z,79.03
2018-03-23T09:21:23.219Z,78.79
2018-03-23T09:24:26.624Z,78.46
2018-03-23T09:27:29.982Z,78.14
2018-03-23T09:30:33.346Z,77.77
2018-03-23T09:33:36.709Z,77.94
2018-03-23T09:36:40.848Z,77.49
2018-03-23T09:39:44.281Z,77.31
2018-03-23T09:42:47.644Z,77.56
2018-03-23T09:45:51.013Z,77.05
2018-03-23T09:48:55.136Z,76.14
2018-03-23T09:51:59.266Z,75.04
2018-03-23T09:55:02.636Z,75.34
2018-03-23T09:58:05.996Z,76.05
2018-03-23T10:01:09.451Z,75.92
2018-03-23T10:04:13.634Z,75.27
2018-03-23T10:07:16.989Z,74.19
2018-03-23T10:10:20.345Z,73.77
2018-03-23T10:13:23.703Z,74.18
2018-03-23T10:16:27.119Z,74.09
2018-03-23T10:19:30.486Z,75.53
2018-03-23T10:22:33.880Z,76.42
2018-03-23T10:25:37.245Z,75.17
2018-03-23T10:28:40.685Z,75.50
2018-03-23T10:31:45.522Z,75.59
2018-03-23T10:34:48.913Z,75.33
2018-03-23T10:37:52.253Z,75.37
2018-03-23T10:40:55.627Z,74.52
2018-03-23T10:43:58.974Z,73.90
2018-03-23T10:47:03.132Z,75.38
2018-03-23T10:50:06.481Z,73.79
2018-03-23T10:53:09.849Z,73.43
2018-03-23T10:56:13.199Z,73.29
2018-03-23T10:59:17.333Z,73.33
2018-03-23T11:05:56.354Z,72.63
2018-03-23T11:08:59.718Z,72.94
2018-03-23T11:12:03.097Z,73.56
2018-03-23T11:15:06.622Z,73.12
2018-03-23T11:18:09.970Z,71.61
2018-03-23T11:21:13.357Z,70.75
2018-03-23T11:24:16.758Z,71.53
2018-03-23T11:27:20.123Z,71.86
2018-03-23T11:30:23.580Z,72.70
2018-03-23T11:33:27.711Z,72.54
2018-03-23T11:36:31.118Z,72.35
2018-03-23T11:39:34.513Z,72.49
2018-03-23T11:42:37.862Z,72.92
2018-03-23T11:45:41.235Z,73.08
2018-03-23T11:48:44.574Z,71.64
2018-03-23T11:51:48.693Z,71.27
2018-03-23T11:54:52.145Z,70.63
2018-03-23T11:57:55.539Z,70.52
2018-03-23T12:00:58.925Z,69.90
2018-03-23T12:04:02.282Z,69.25
2018-03-23T12:07:05.647Z,69.30
2018-03-23T12:10:09.060Z,68.83
2018-03-23T12:13:12.422Z,67.93
2018-03-23T12:16:15.795Z,67.38
2018-03-23T12:19:19.947Z,68.02
2018-03-23T12:22:23.304Z,67.35
2018-03-23T12:25:27.434Z,67.97
2018-03-23T12:28:31.607Z,69.17
2018-03-23T12:31:34.982Z,69.04
2018-03-23T12:34:38.580Z,69.79
2018-03-23T12:37:42.177Z,69.54
2018-03-23T12:40:45.542Z,69.59
2018-03-23T12:43:49.161Z,70.74
2018-03-23T12:46:53.491Z,71.22
2018-03-23T12:49:57.597Z,70.10
2018-03-23T12:53:01.010Z,70.45
2018-03-23T12:56:04.374Z,70.25
2018-03-23T12:59:08.581Z,70.20
2018-03-23T13:02:12.130Z,70.17
2018-03-23T13:05:15.482Z,69.78
2018-03-23T13:08:18.840Z,70.11
2018-03-23T13:11:22.198Z,69.74
2018-03-23T13:14:25.553Z,70.18
2018-03-23T13:17:28.925Z,71.23
2018-03-23T13:20:32.330Z,71.26
2018-03-23T13:23:35.687Z,71.09
2018-03-23T13:26:39.062Z,69.87
2018-03-23T13:29:42.442Z,69.24
2018-03-23T13:32:45.829Z,69.49
2018-03-23T13:35:49.212Z,69.45
2018-03-23T13:38:53.363Z,70.14
2018-03-23T13:41:56.824Z,70.50
2018-03-23T13:45:01.041Z,70.95
2018-03-23T13:48:05.378Z,71.39
2018-03-23T13:51:08.983Z,72.14
2018-03-23T13:54:12.550Z,72.94
2018-03-23T13:57:16.869Z,72.87
2018-03-23T14:00:25.644Z,72.95
2018-03-23T14:03:29.003Z,73.02
2018-03-23T14:06:32.383Z,72.60
2018-03-23T14:09:35.706Z,73.45
2018-03-23T14:12:39.844Z,73.41
2018-03-23T14:15:43.219Z,72.87
2018-03-23T14:18:46.596Z,72.75
2018-03-23T14:21:50.030Z,72.44
2018-03-23T14:24:54.155Z,73.08
2018-03-23T14:27:58.345Z,73.02
2018-03-23T14:31:01.780Z,72.99
2018-03-23T14:34:05.245Z,72.87
2018-03-23T14:37:08.602Z,72.99
2018-03-23T14:40:11.980Z,73.53
2018-03-23T14:43:15.325Z,73.80
2018-03-23T14:46:25.841Z,74.10
2018-03-23T14:49:29.582Z,74.33
2018-03-23T14:52:32.939Z,74.25
2018-03-23T14:55:37.080Z,74.24
2018-03-23T14:58:45.992Z,74.82
2018-03-23T15:01:50.124Z,75.08
2018-03-23T15:04:53.482Z,75.76
2018-03-23T15:07:56.834Z,76.08
2018-03-23T15:11:00.214Z,75.94
2018-03-23T15:14:16.425Z,76.25
2018-03-23T15:17:19.821Z,76.42
2018-03-23T15:20:23.176Z,76.54
2018-03-23T15:23:26.556Z,76.44
2018-03-23T15:26:29.911Z,76.58
2018-03-23T15:29:33.293Z,76.64
2018-03-23T15:32:36.691Z,76.35
2018-03-23T15:35:40.814Z,76.62
2018-03-23T15:38:44.999Z,77.15
2018-03-23T15:41:49.158Z,77.35
2018-03-23T15:44:52.589Z,77.66
2018-03-23T15:47:55.925Z,77.88
2018-03-23T15:50:59.531Z,78.08
2018-03-23T15:54:02.884Z,77.81
2018-03-23T15:57:06.242Z,78.12
2018-03-23T16:00:10.390Z,78.57
2018-03-23T16:03:13.748Z,78.40
2018-03-23T16:06:17.162Z,78.25
2018-03-23T16:09:21.308Z,78.59
2018-03-23T16:12:24.761Z,78.74
2018-03-23T16:15:29.639Z,78.77
2018-03-23T16:18:33.064Z,78.75
2018-03-23T16:21:36.397Z,78.68
2018-03-23T16:24:39.784Z,79.46
2018-03-23T16:27:43.316Z,79.46
2018-03-23T16:30:47.547Z,79.32
2018-03-23T16:33:50.903Z,79.91
2018-03-23T16:36:54.271Z,79.98
2018-03-23T16:39:57.645Z,79.92
2018-03-23T16:43:01.019Z,80.29
2018-03-23T16:46:05.255Z,80.54
2018-03-23T16:49:09.414Z,81.06
2018-03-23T16:52:12.771Z,81.62
2018-03-23T16:55:16.897Z,81.71
2018-03-23T16:58:20.240Z,82.12
2018-03-23T17:01:23.615Z,82.66
2018-03-23T17:04:26.987Z,83.44
2018-03-23T17:07:31.272Z,83.53
2018-03-23T17:10:34.625Z,83.67
2018-03-23T17:13:38.046Z,83.98
2018-03-23T17:16:42.183Z,84.19
2018-03-23T17:19:46.489Z,84.61
2018-03-23T17:22:49.843Z,84.59
2018-03-23T17:25:53.235Z,84.84
2018-03-23T17:28:57.600Z,85.30
2018-03-23T17:32:01.079Z,85.46
2018-03-23T17:35:04.606Z,85.67
2018-03-23T17:38:08.005Z,85.76
2018-03-23T17:41:11.560Z,86.00
2018-03-23T17:44:15.900Z,85.92
2018-03-23T17:47:20.267Z,85.85
2018-03-23T17:50:23.635Z,85.87
2018-03-23T17:53:27.010Z,85.89
2018-03-23T17:56:31.426Z,86.08
2018-03-23T17:59:35.590Z,86.01
2018-03-23T18:02:38.996Z,85.52
2018-03-23T18:05:42.675Z,85.53
2018-03-23T18:08:46.077Z,85.65
2018-03-23T18:11:49.530Z,85.25
2018-03-23T18:14:52.904Z,85.33
2018-03-23T18:17:56.286Z,85.20
2018-03-23T18:20:59.663Z,85.56
2018-03-23T18:24:03.076Z,85.09
2018-03-23T18:27:06.430Z,85.26
2018-03-23T18:30:09.805Z,85.43
2018-03-23T18:33:13.276Z,85.46
2018-03-23T18:36:16.635Z,85.13
2018-03-23T18:39:20.796Z,85.31
2018-03-23T18:42:24.149Z,85.58
2018-03-23T18:45:27.655Z,85.72
2018-03-23T18:48:31.862Z,85.66
2018-03-23T18:51:35.231Z,85.62
2018-03-23T18:54:38.620Z,85.93
2018-03-23T18:57:42.006Z,86.17
2018-03-23T19:00:45.426Z,86.63
2018-03-23T19:03:48.804Z,86.85
2018-03-23T19:06:52.186Z,86.92
2018-03-23T19:09:56.312Z,87.47
2018-03-23T19:12:59.690Z,87.34
2018-03-23T19:16:03.858Z,87.50
2018-03-23T19:19:07.392Z,87.50
2018-03-23T19:22:10.808Z,87.40
2018-03-23T19:25:14.944Z,87.50
2018-03-23T19:28:18.320Z,87.61
2018-03-23T19:31:21.696Z,87.99
2018-03-23T19:34:25.058Z,88.02
2018-03-23T19:37:28.558Z,88.06
2018-03-23T19:40:31.950Z,88.07
2018-03-23T19:43:35.344Z,88.03
2018-03-23T19:46:38.763Z,88.34
2018-03-23T19:49:42.881Z,88.28
2018-03-23T19:52:46.534Z,88.53
2018-03-23T19:55:49.898Z,88.57
2018-03-23T19:58:53.286Z,88.73
2018-03-23T20:01:56.644Z,88.82
2018-03-23T20:05:00.780Z,88.73
2018-03-23T20:08:04.159Z,89.27
2018-03-23T20:11:08.289Z,89.39
2018-03-23T20:14:12.450Z,89.50
2018-03-23T20:17:16.126Z,89.33
2018-03-23T20:20:25.032Z,89.38
2018-03-23T20:23:29.230Z,89.35
2018-03-23T20:26:32.596Z,89.42
2018-03-23T20:29:35.984Z,89.54
2018-03-23T20:32:39.452Z,89.80
2018-03-23T20:35:43.741Z,89.84
2018-03-23T20:38:47.950Z,89.88
2018-03-23T20:41:51.350Z,89.93
2018-03-23T20:44:54.772Z,90.04
2018-03-23T20:47:58.150Z,90.26
2018-03-23T20:51:01.549Z,90.27
2018-03-23T20:54:04.925Z,90.25
2018-03-23T20:57:08.306Z,90.26
2018-03-23T21:00:11.670Z,90.19
2018-03-23T21:03:15.044Z,90.21
2018-03-23T21:06:18.423Z,90.20
2018-03-23T21:09:21.816Z,90.00
2018-03-23T21:12:25.217Z,89.86
2018-03-23T21:15:28.583Z,89.88
2018-03-23T21:18:32.711Z,89.92
2018-03-23T21:21:36.844Z,89.87
2018-03-23T21:24:40.212Z,90.15
2018-03-23T21:27:44.472Z,90.33
2018-03-23T21:30:47.886Z,90.33
2018-03-23T21:33:51.331Z,90.43
2018-03-23T21:36:55.663Z,90.53
2018-03-23T21:39:59.866Z,90.59
2018-03-23T21:43:03.245Z,90.52
2018-03-23T21:46:06.625Z,90.62
2018-03-23T21:49:09.974Z,90.58
2018-03-23T21:52:14.094Z,90.51
2018-03-23T21:55:18.220Z,90.53
2018-03-23T21:58:22.355Z,90.50
2018-03-23T22:01:25.730Z,90.54
2018-03-23T22:04:29.874Z,90.48
2018-03-23T22:07:33.239Z,90.49
2018-03-23T22:10:37.446Z,90.36
2018-03-23T22:13:40.815Z,90.45
2018-03-23T22:16:44.202Z,90.46
2018-03-23T22:19:47.567Z,90.50
2018-03-23T22:22:50.926Z,90.58
2018-03-23T22:25:55.797Z,90.59
2018-03-23T22:29:00.015Z,90.63
2018-03-23T22:32:04.150Z,90.70
2018-03-23T22:35:07.541Z,90.74
2018-03-23T22:38:10.919Z,90.80
2018-03-23T22:41:15.037Z,90.85
2018-03-23T22:44:19.174Z,90.99
2018-03-23T22:47:22.551Z,91.05
2018-03-23T22:50:26.695Z,91.11
2018-03-23T22:53:30.098Z,91.15
2018-03-23T22:56:33.607Z,91.19
2018-03-23T22:59:36.973Z,91.15
2018-03-23T23:02:41.119Z,91.11
2018-03-23T23:05:44.481Z,91.20
2018-03-23T23:08:48.094Z,91.27
2018-03-23T23:11:52.402Z,91.34
2018-03-23T23:14:55.780Z,91.41
2018-03-23T23:17:59.163Z,91.52
2018-03-23T23:21:02.582Z,91.52
2018-03-23T23:24:05.950Z,91.62
2018-03-23T23:27:09.334Z,91.70
2018-03-23T23:30:12.733Z,91.67
2018-03-23T23:33:16.100Z,91.68
2018-03-23T23:36:20.288Z,91.70
2018-03-23T23:39:23.645Z,91.55
2018-03-23T23:42:26.993Z,91.55
2018-03-23T23:45:30.405Z,91.57
2018-03-23T23:48:33.742Z,91.50
2018-03-23T23:51:37.136Z,91.57
2018-03-23T23:54:40.499Z,91.57
2018-03-23T23:57:43.868Z,91.55
